Pahala, Hawaii
Current Conditions -  °F | °C
As of 2:56 PM on Thursday 18 Dec 2014 (Local Time) from PHSF Reporting Station
Few Clouds Few Clouds  
Wind Chill: 72°   Ceiling: Unl
Heat Index: 72°   Visibility: 10mi
Dew Point: 27°   Wind: 20mph
Humidity: 19%   Direction: 160°SSE
Pressure: 30.31"   Gusts: 33mph
Location:  19.2°N, 155.47°W
Report Text: PHSF 190056Z AUTO 16017G29KT 10SM FEW240 22/M03 A3031 RMK AO2 PK WND 14026/35 SLP155 T02201028 $
Loading
Personal Weather Stations






























Interactive Weather Map New forecast layout! Learn more

10-Day Weather Forecast

Advertisements
Track Severe Weather on mobile